Terminal Aerodrome Forecast
Issued by NWS

Home | Current Version | Previous Version | Text Only | Print | Product List | Glossary On
Versions: 1 2 3 4 5 6 7 8 9 10 11 12 13 14
000
FTUS43 KMPX 202300
TAFRNH
TAF
KRNH 202333Z 2100/2124 16007KT 4SM BR SCT008 OVC015
     FM210400 15007KT 3SM BR OVC008
     FM211600 15010KT 6SM BR SCT008 OVC012=

USA.gov is the U.S. government's official web portal to all federal, state and local government web resources and services.